createdAt,value
2018-02-20T00:01:17.860Z,36.33
2018-02-20T00:03:45.319Z,37.30
2018-02-20T00:06:12.773Z,31.73
2018-02-20T00:08:40.246Z,33.23
2018-02-20T00:11:07.693Z,29.93
2018-02-20T00:13:35.157Z,40.07
2018-02-20T00:16:02.607Z,32.37
2018-02-20T00:18:30.052Z,31.20
2018-02-20T00:20:57.499Z,30.60
2018-02-20T00:23:25.718Z,35.20
2018-02-20T00:25:53.242Z,29.90
2018-02-20T00:28:20.690Z,31.47
2018-02-20T00:30:48.971Z,32.77
2018-02-20T00:33:17.189Z,23.50
2018-02-20T00:35:44.653Z,30.60
2018-02-20T00:38:12.105Z,27.63
2018-02-20T00:40:39.561Z,35.53
2018-02-20T00:43:07.026Z,34.10
2018-02-20T00:45:34.468Z,38.30
2018-02-20T00:48:01.915Z,30.63
2018-02-20T00:50:29.365Z,27.83
2018-02-20T00:52:56.817Z,31.70
2018-02-20T00:55:24.266Z,33.20
2018-02-20T00:57:51.704Z,29.83
2018-02-20T01:00:19.945Z,29.83
2018-02-20T01:02:47.388Z,34.87
2018-02-20T01:05:14.845Z,33.27
2018-02-20T01:07:43.168Z,32.00
2018-02-20T01:10:11.389Z,32.97
2018-02-20T01:12:38.832Z,35.33
2018-02-20T01:15:06.280Z,38.20
2018-02-20T01:17:33.725Z,33.20
2018-02-20T01:20:01.945Z,34.43
2018-02-20T01:22:29.408Z,31.27
2018-02-20T01:24:56.863Z,34.40
2018-02-20T01:27:24.311Z,31.50
2018-02-20T01:29:51.767Z,29.40
2018-02-20T01:32:19.210Z,24.73
2018-02-20T01:34:46.981Z,38.13
2018-02-20T01:37:14.425Z,33.93
2018-02-20T01:39:41.868Z,26.20
2018-02-20T01:42:10.081Z,28.93
2018-02-20T01:44:37.541Z,28.40
2018-02-20T01:47:04.994Z,36.07
2018-02-20T01:49:33.127Z,35.80
2018-02-20T01:52:01.342Z,29.87
2018-02-20T01:54:28.785Z,28.60
2018-02-20T01:56:56.220Z,26.20
2018-02-20T01:59:24.446Z,31.00
2018-02-20T02:01:51.890Z,32.60
2018-02-20T02:04:19.343Z,31.57
2018-02-20T02:06:46.795Z,34.43
2018-02-20T02:09:14.251Z,33.13
2018-02-20T02:11:41.701Z,30.67
2018-02-20T02:14:09.166Z,31.50
2018-02-20T02:16:36.610Z,29.20
2018-02-20T02:19:04.068Z,26.53
2018-02-20T02:21:31.522Z,33.33
2018-02-20T02:23:58.964Z,31.97
2018-02-20T02:26:27.175Z,31.60
2018-02-20T02:28:54.621Z,27.60
2018-02-20T02:31:24.120Z,36.97
2018-02-20T02:33:51.565Z,32.00
2018-02-20T02:36:19.011Z,26.73
2018-02-20T02:38:47.237Z,30.60
2018-02-20T02:41:14.686Z,28.80
2018-02-20T02:43:42.139Z,32.40
2018-02-20T02:46:09.608Z,24.43
2018-02-20T02:48:37.058Z,30.60
2018-02-20T02:51:04.496Z,32.40
2018-02-20T02:53:31.946Z,28.33
2018-02-20T02:55:59.399Z,27.80
2018-02-20T02:58:27.628Z,37.07
2018-02-20T03:00:55.091Z,31.83
2018-02-20T03:03:22.530Z,27.03
2018-02-20T03:05:49.978Z,30.70
2018-02-20T03:08:17.431Z,30.10
2018-02-20T03:10:44.885Z,33.83
2018-02-20T03:13:12.342Z,27.77
2018-02-20T03:15:39.800Z,27.27
2018-02-20T03:18:07.249Z,28.23
2018-02-20T03:20:34.714Z,27.97
2018-02-20T03:23:02.158Z,24.10
2018-02-20T03:25:29.636Z,28.40
2018-02-20T03:27:57.093Z,33.87
2018-02-20T03:30:24.549Z,27.93
2018-02-20T03:32:52.005Z,28.30
2018-02-20T03:35:19.463Z,30.00
2018-02-20T03:37:46.923Z,25.00
2018-02-20T03:40:14.364Z,28.27
2018-02-20T03:42:41.813Z,29.23
2018-02-20T03:45:09.276Z,29.93
2018-02-20T03:47:36.724Z,32.93
2018-02-20T03:50:04.932Z,28.73
2018-02-20T03:52:32.387Z,36.60
2018-02-20T03:54:59.829Z,27.47
2018-02-20T03:57:27.301Z,40.67
2018-02-20T03:59:54.740Z,29.23
2018-02-20T04:02:22.185Z,26.47
2018-02-20T04:04:49.636Z,28.83
2018-02-20T04:07:17.846Z,30.50
2018-02-20T04:09:45.306Z,25.23
2018-02-20T04:12:12.755Z,28.67
2018-02-20T04:14:40.211Z,33.20
2018-02-20T04:17:07.649Z,26.50
2018-02-20T04:19:35.110Z,27.03
2018-02-20T04:22:03.488Z,28.67
2018-02-20T04:24:30.942Z,27.73
2018-02-20T04:26:58.392Z,34.73
2018-02-20T04:29:26.613Z,24.30
2018-02-20T04:31:54.064Z,27.63
2018-02-20T04:34:21.501Z,32.10
2018-02-20T04:36:48.936Z,27.63
2018-02-20T04:39:17.149Z,26.40
2018-02-20T04:41:44.594Z,30.57
2018-02-20T04:44:12.044Z,31.83
2018-02-20T04:46:39.520Z,29.43
2018-02-20T04:49:06.981Z,34.00
2018-02-20T04:51:34.425Z,26.47
2018-02-20T04:54:01.871Z,33.73
2018-02-20T04:56:29.316Z,34.40
2018-02-20T04:58:57.526Z,29.07
2018-02-20T05:01:24.979Z,36.37
2018-02-20T05:03:52.414Z,33.50
2018-02-20T05:06:19.868Z,25.40
2018-02-20T05:08:47.302Z,24.50
2018-02-20T05:11:15.551Z,28.40
2018-02-20T05:13:42.997Z,28.97
2018-02-20T05:16:18.579Z,28.83
2018-02-20T05:18:46.053Z,29.60
2018-02-20T05:21:14.273Z,26.60
2018-02-20T05:23:41.718Z,32.33
2018-02-20T05:26:09.254Z,25.73
2018-02-20T05:28:37.465Z,26.40
2018-02-20T05:31:04.996Z,33.40
2018-02-20T05:33:32.436Z,30.87
2018-02-20T05:36:00.658Z,28.27
2018-02-20T05:38:28.169Z,32.90
2018-02-20T05:40:56.387Z,34.50
2018-02-20T05:43:23.847Z,26.70
2018-02-20T05:45:51.784Z,29.40
2018-02-20T05:48:19.245Z,40.90
2018-02-20T05:50:46.703Z,35.40
2018-02-20T05:53:14.149Z,39.13
2018-02-20T05:55:41.597Z,30.73
2018-02-20T05:58:09.823Z,27.40
2018-02-20T06:00:37.280Z,25.17
2018-02-20T06:03:04.723Z,35.50
2018-02-20T06:05:32.186Z,32.37
2018-02-20T06:07:59.652Z,31.73
2018-02-20T06:10:27.117Z,34.30
2018-02-20T06:12:54.554Z,33.50
2018-02-20T06:15:21.999Z,33.63
2018-02-20T06:17:49.438Z,37.50
2018-02-20T06:20:16.908Z,36.77
2018-02-20T06:22:44.348Z,32.50
2018-02-20T06:25:12.579Z,38.93
2018-02-20T06:27:40.081Z,44.57
2018-02-20T06:30:08.302Z,39.50
2018-02-20T06:32:35.760Z,32.43
2018-02-20T06:35:03.245Z,34.47
2018-02-20T06:37:30.686Z,36.13
2018-02-20T06:39:58.145Z,42.93
2018-02-20T06:42:25.608Z,35.67
2018-02-20T06:44:53.076Z,35.60
2018-02-20T06:47:20.512Z,39.77
2018-02-20T06:49:48.001Z,34.30
2018-02-20T06:52:15.456Z,33.60
2018-02-20T06:54:42.908Z,38.33
2018-02-20T06:57:10.360Z,36.70
2018-02-20T06:59:37.817Z,40.93
2018-02-20T07:02:05.259Z,40.83
2018-02-20T07:04:32.704Z,38.93
2018-02-20T07:07:00.161Z,41.50
2018-02-20T07:09:27.598Z,37.57
2018-02-20T07:11:55.035Z,41.37
2018-02-20T07:14:22.491Z,41.27
2018-02-20T07:16:50.709Z,40.50
2018-02-20T07:19:18.156Z,35.27
2018-02-20T07:21:45.615Z,40.97
2018-02-20T07:24:13.048Z,52.23
2018-02-20T07:26:40.499Z,39.93
2018-02-20T07:29:07.940Z,38.40
2018-02-20T07:31:38.179Z,53.17
2018-02-20T07:34:05.624Z,35.60
2018-02-20T07:36:33.844Z,36.27
2018-02-20T07:39:01.299Z,34.03
2018-02-20T07:41:28.749Z,36.70
2018-02-20T07:43:56.204Z,39.83
2018-02-20T07:46:23.625Z,33.53
2018-02-20T07:48:51.849Z,43.03
2018-02-20T07:51:19.344Z,36.33
2018-02-20T07:53:46.792Z,37.87
2018-02-20T07:56:14.244Z,34.53
2018-02-20T07:58:41.712Z,35.40
2018-02-20T08:01:09.172Z,35.67
2018-02-20T08:03:36.661Z,40.53
2018-02-20T08:06:04.126Z,32.73
2018-02-20T08:08:31.568Z,38.33
2018-02-20T08:10:59.790Z,36.10
2018-02-20T08:13:27.268Z,39.30
2018-02-20T08:15:54.707Z,38.20
2018-02-20T08:18:22.143Z,35.80
2018-02-20T08:20:49.593Z,36.43
2018-02-20T08:23:17.038Z,45.87
2018-02-20T08:25:44.497Z,36.23
2018-02-20T08:28:11.932Z,44.50
2018-02-20T08:30:40.156Z,37.90
2018-02-20T08:33:07.607Z,34.83
2018-02-20T08:35:35.068Z,36.73
2018-02-20T08:38:02.512Z,33.87
2018-02-20T08:40:29.961Z,39.50
2018-02-20T08:42:57.408Z,43.43
2018-02-20T08:45:25.636Z,35.83
2018-02-20T08:47:53.073Z,32.70
2018-02-20T08:50:20.518Z,41.90
2018-02-20T08:52:47.975Z,41.50
2018-02-20T08:55:15.431Z,37.10
2018-02-20T08:57:42.869Z,34.03
2018-02-20T09:00:11.092Z,34.80
2018-02-20T09:02:38.556Z,35.60
2018-02-20T09:05:06.029Z,35.70
2018-02-20T09:07:33.499Z,36.70
2018-02-20T09:10:00.927Z,42.47
2018-02-20T09:12:28.368Z,45.53
2018-02-20T09:14:55.801Z,37.67
2018-02-20T09:17:23.237Z,36.70
2018-02-20T09:19:51.451Z,45.73
2018-02-20T09:22:18.897Z,40.00
2018-02-20T09:24:46.338Z,37.60
2018-02-20T09:27:13.790Z,36.30
2018-02-20T09:29:42.015Z,45.37
2018-02-20T09:32:09.517Z,42.23
2018-02-20T09:34:37.730Z,46.27
2018-02-20T09:37:05.175Z,47.40
2018-02-20T09:39:32.651Z,43.50
2018-02-20T09:42:00.076Z,45.90
2018-02-20T09:44:27.537Z,43.83
2018-02-20T09:46:55.801Z,53.73
2018-02-20T09:49:24.062Z,37.90
2018-02-20T09:51:51.558Z,38.70
2018-02-20T09:54:19.074Z,46.83
2018-02-20T09:56:46.547Z,46.93
2018-02-20T09:59:13.975Z,38.10
2018-02-20T10:01:41.418Z,42.07
2018-02-20T10:04:09.639Z,43.57
2018-02-20T10:06:37.849Z,42.50
2018-02-20T10:09:05.297Z,40.47
2018-02-20T10:11:32.745Z,43.17
2018-02-20T10:14:00.187Z,44.57
2018-02-20T10:16:28.391Z,43.70
2018-02-20T10:18:55.828Z,41.20
2018-02-20T10:21:23.282Z,44.73
2018-02-20T10:23:51.492Z,43.20
2018-02-20T10:26:18.951Z,41.90
2018-02-20T10:28:46.410Z,39.37
2018-02-20T10:31:13.827Z,38.93
2018-02-20T10:33:42.050Z,41.63
2018-02-20T10:36:09.507Z,43.77
2018-02-20T10:38:36.960Z,41.17
2018-02-20T10:41:04.528Z,45.40
2018-02-20T10:43:31.948Z,40.57
2018-02-20T10:45:59.590Z,44.43
2018-02-20T10:48:28.003Z,38.40
2018-02-20T10:50:55.473Z,41.20
2018-02-20T10:53:22.947Z,38.93
2018-02-20T10:55:50.388Z,37.47
2018-02-20T10:58:17.848Z,41.87
2018-02-20T11:00:45.307Z,36.47
2018-02-20T11:03:12.742Z,43.73
2018-02-20T11:05:40.175Z,35.13
2018-02-20T11:08:08.387Z,41.47
2018-02-20T11:10:35.831Z,40.07
2018-02-20T11:13:03.321Z,38.50
2018-02-20T11:15:30.804Z,38.47
2018-02-20T11:17:58.320Z,45.37
2018-02-20T11:20:25.801Z,37.03
2018-02-20T11:22:59.381Z,41.23
2018-02-20T11:25:26.822Z,35.23
2018-02-20T11:27:54.261Z,41.73
2018-02-20T11:30:22.041Z,41.77
2018-02-20T11:32:49.687Z,35.53
2018-02-20T11:35:18.168Z,38.17
2018-02-20T11:37:46.375Z,41.57
2018-02-20T11:40:13.955Z,33.03
2018-02-20T11:42:41.385Z,35.23
2018-02-20T11:45:08.826Z,36.37
2018-02-20T11:47:36.261Z,38.83
2018-02-20T11:50:04.474Z,38.47
2018-02-20T11:52:32.022Z,35.30
2018-02-20T11:54:59.452Z,37.77
2018-02-20T11:57:27.661Z,39.33
2018-02-20T11:59:55.126Z,33.43
2018-02-20T12:02:22.558Z,38.03
2018-02-20T12:04:50.017Z,29.07
2018-02-20T12:07:18.268Z,32.00
2018-02-20T12:09:46.042Z,32.33
2018-02-20T12:12:13.664Z,38.13
2018-02-20T12:14:41.113Z,34.10
2018-02-20T12:17:08.560Z,32.07
2018-02-20T12:19:36.030Z,33.67
2018-02-20T12:22:03.479Z,35.80
2018-02-20T12:24:30.928Z,33.03
2018-02-20T12:26:58.387Z,32.47
2018-02-20T12:29:25.825Z,30.37
2018-02-20T12:31:54.292Z,33.00
2018-02-20T12:34:22.506Z,30.10
2018-02-20T12:36:50.049Z,31.10
2018-02-20T12:39:17.472Z,26.40
2018-02-20T12:41:45.693Z,30.13
2018-02-20T12:44:13.133Z,29.83
2018-02-20T12:46:40.583Z,22.77
2018-02-20T12:49:08.024Z,28.53
2018-02-20T12:51:36.217Z,29.30
2018-02-20T12:54:03.664Z,26.30
2018-02-20T12:56:31.867Z,31.70
2018-02-20T12:58:59.318Z,32.50
2018-02-20T13:01:26.740Z,32.87
2018-02-20T13:03:55.095Z,34.80
2018-02-20T13:06:22.560Z,31.03
2018-02-20T13:08:50.011Z,30.80
2018-02-20T13:11:17.582Z,34.20
2018-02-20T13:13:45.026Z,30.70
2018-02-20T13:16:12.682Z,33.73
2018-02-20T13:18:40.181Z,31.60
2018-02-20T13:21:08.383Z,33.00
2018-02-20T13:23:35.826Z,33.87
2018-02-20T13:26:03.321Z,32.80
2018-02-20T13:28:30.760Z,32.33
2018-02-20T13:30:58.225Z,37.63
2018-02-20T13:33:25.779Z,28.43
2018-02-20T13:35:53.278Z,36.67
2018-02-20T13:38:20.729Z,25.80
2018-02-20T13:40:48.173Z,32.03
2018-02-20T13:43:15.622Z,30.40
2018-02-20T13:45:43.070Z,44.03
2018-02-20T13:48:10.616Z,40.70
2018-02-20T13:50:38.068Z,32.03
2018-02-20T13:53:05.544Z,30.47
2018-02-20T13:55:33.080Z,28.97
2018-02-20T13:58:00.522Z,30.47
2018-02-20T14:00:28.733Z,32.40
2018-02-20T14:02:56.193Z,33.80
2018-02-20T14:05:23.721Z,34.50
2018-02-20T14:07:51.275Z,35.73
2018-02-20T14:10:19.484Z,42.27
2018-02-20T14:12:46.940Z,34.10
2018-02-20T14:15:14.388Z,34.70
2018-02-20T14:17:41.822Z,31.70
2018-02-20T14:20:09.497Z,29.73
2018-02-20T14:22:36.964Z,35.90
2018-02-20T14:25:04.402Z,29.63
2018-02-20T14:27:31.904Z,30.63
2018-02-20T14:29:59.412Z,35.40
2018-02-20T14:32:27.658Z,42.30
2018-02-20T14:34:55.119Z,31.00
2018-02-20T14:37:22.597Z,35.50
2018-02-20T14:39:50.813Z,43.40
2018-02-20T14:42:18.332Z,34.83
2018-02-20T14:44:46.550Z,31.83
2018-02-20T14:47:14.013Z,29.83
2018-02-20T14:49:41.466Z,38.83
2018-02-20T14:52:08.996Z,32.90
2018-02-20T14:54:37.195Z,33.13
2018-02-20T14:57:04.650Z,32.77
2018-02-20T14:59:32.122Z,33.63
2018-02-20T15:02:00.349Z,36.07
2018-02-20T15:04:28.556Z,32.50
2018-02-20T15:06:56.002Z,30.30
2018-02-20T15:09:23.453Z,29.77
2018-02-20T15:11:50.883Z,37.70
2018-02-20T15:14:19.176Z,32.33
2018-02-20T15:16:46.640Z,31.57
2018-02-20T15:19:14.104Z,26.00
2018-02-20T15:21:41.658Z,30.30
2018-02-20T15:24:09.103Z,31.03
2018-02-20T15:26:37.299Z,37.47
2018-02-20T15:29:04.747Z,28.50
2018-02-20T15:31:32.290Z,34.73
2018-02-20T15:34:00.509Z,33.73
2018-02-20T15:36:27.971Z,31.80
2018-02-20T15:38:55.410Z,35.90
2018-02-20T15:41:22.861Z,38.33
2018-02-20T15:43:50.311Z,33.60
2018-02-20T15:46:17.767Z,35.23
2018-02-20T15:48:45.214Z,36.00
2018-02-20T15:51:13.428Z,35.63
2018-02-20T15:53:40.876Z,40.30
2018-02-20T15:56:08.367Z,43.37
2018-02-20T15:58:36.781Z,37.77
2018-02-20T16:01:05.012Z,43.60
2018-02-20T16:03:32.468Z,40.30
2018-02-20T16:05:59.995Z,42.00
2018-02-20T16:08:27.491Z,35.27
2018-02-20T16:10:54.948Z,37.37
2018-02-20T16:13:22.404Z,56.70
2018-02-20T16:15:50.721Z,52.63
2018-02-20T16:18:19.951Z,42.50
2018-02-20T16:20:47.483Z,42.87
2018-02-20T16:23:15.709Z,49.83
2018-02-20T16:25:43.155Z,40.50
2018-02-20T16:28:10.614Z,47.27
2018-02-20T16:30:38.076Z,51.77
2018-02-20T16:33:05.618Z,43.23
2018-02-20T16:35:33.121Z,51.43
2018-02-20T16:38:00.586Z,49.23
2018-02-20T16:40:28.025Z,50.57
2018-02-20T16:42:55.484Z,41.97
2018-02-20T16:45:22.935Z,46.37
2018-02-20T16:47:50.456Z,45.80
2018-02-20T16:50:17.908Z,49.30
2018-02-20T16:52:45.370Z,44.77
2018-02-20T16:55:12.825Z,43.37
2018-02-20T16:57:40.294Z,47.87
2018-02-20T17:00:07.833Z,41.83
2018-02-20T17:02:35.286Z,48.63
2018-02-20T17:05:03.552Z,52.53
2018-02-20T17:07:31.032Z,51.90
2018-02-20T17:09:58.487Z,46.47
2018-02-20T17:12:26.183Z,49.50
2018-02-20T17:14:53.629Z,50.50
2018-02-20T17:17:21.283Z,47.73
2018-02-20T17:19:48.753Z,42.20
2018-02-20T17:22:16.282Z,55.60
2018-02-20T17:24:44.513Z,44.83
2018-02-20T17:27:11.961Z,52.47
2018-02-20T17:29:40.414Z,45.40
2018-02-20T17:32:07.872Z,42.33
2018-02-20T17:34:35.343Z,53.73
2018-02-20T17:37:02.776Z,44.30
2018-02-20T17:39:30.233Z,48.80
2018-02-20T17:41:57.684Z,53.50
2018-02-20T17:44:25.151Z,49.77
2018-02-20T17:46:52.624Z,47.27
2018-02-20T17:49:20.062Z,49.27
2018-02-20T17:51:47.512Z,41.40
2018-02-20T17:54:15.067Z,42.13
2018-02-20T17:56:43.283Z,53.80
2018-02-20T17:59:10.730Z,47.13
2018-02-20T18:01:38.268Z,58.10
2018-02-20T18:04:05.756Z,50.17
2018-02-20T18:06:33.271Z,41.20
2018-02-20T18:09:01.492Z,49.53
2018-02-20T18:11:28.926Z,53.90
2018-02-20T18:13:56.458Z,45.37
2018-02-20T18:16:24.670Z,45.27
2018-02-20T18:18:52.228Z,54.90
2018-02-20T18:21:19.693Z,53.67
2018-02-20T18:23:47.143Z,52.10
2018-02-20T18:26:14.688Z,47.00
2018-02-20T18:28:42.174Z,49.00
2018-02-20T18:31:09.719Z,48.80
2018-02-20T18:33:37.911Z,46.63
2018-02-20T18:36:06.120Z,49.03
2018-02-20T18:38:33.576Z,51.23
2018-02-20T18:41:01.017Z,45.13
2018-02-20T18:43:28.463Z,50.60
2018-02-20T18:45:55.951Z,45.37
2018-02-20T18:48:24.227Z,50.80
2018-02-20T18:50:51.694Z,46.13
2018-02-20T18:53:19.913Z,46.07
2018-02-20T18:55:47.366Z,49.33
2018-02-20T18:58:14.843Z,41.30
2018-02-20T19:00:42.324Z,43.87
2018-02-20T19:03:09.781Z,43.07
2018-02-20T19:05:37.230Z,37.50
2018-02-20T19:08:04.684Z,37.33
2018-02-20T19:10:32.129Z,42.20
2018-02-20T19:12:59.627Z,46.60
2018-02-20T19:15:27.860Z,33.50
2018-02-20T19:17:55.301Z,44.20
2018-02-20T19:20:22.753Z,38.23
2018-02-20T19:22:50.211Z,42.00
2018-02-20T19:25:17.685Z,37.07
2018-02-20T19:27:45.140Z,51.33
2018-02-20T19:30:12.600Z,42.70
2018-02-20T19:32:40.149Z,44.53
2018-02-20T19:35:07.681Z,45.33
2018-02-20T19:37:35.168Z,40.60
2018-02-20T19:40:02.684Z,45.97
2018-02-20T19:42:30.979Z,34.67
2018-02-20T19:44:58.432Z,46.47
2018-02-20T19:47:25.918Z,42.33
2018-02-20T19:49:53.437Z,49.67
2018-02-20T19:52:21.654Z,44.40
2018-02-20T19:54:49.125Z,36.77
2018-02-20T19:57:16.577Z,48.30
2018-02-20T19:59:44.417Z,49.27
2018-02-20T20:02:12.509Z,39.43
2018-02-20T20:04:39.960Z,56.80
2018-02-20T20:07:07.420Z,44.67
2018-02-20T20:09:34.877Z,42.90
2018-02-20T20:12:02.325Z,51.23
2018-02-20T20:14:29.777Z,34.47
2018-02-20T20:16:57.217Z,42.57
2018-02-20T20:19:25.550Z,43.03
2018-02-20T20:21:53.004Z,38.23
2018-02-20T20:24:20.441Z,44.53
2018-02-20T20:26:47.881Z,46.20
2018-02-20T20:29:15.329Z,45.20
2018-02-20T20:31:43.810Z,37.70
2018-02-20T20:34:11.260Z,43.70
2018-02-20T20:36:39.476Z,41.73
2018-02-20T20:39:06.936Z,45.73
2018-02-20T20:41:34.372Z,41.50
2018-02-20T20:44:01.865Z,38.00
2018-02-20T20:46:29.345Z,50.10
2018-02-20T20:48:56.824Z,48.30
2018-02-20T20:51:24.281Z,49.37
2018-02-20T20:53:52.505Z,44.60
2018-02-20T20:56:19.955Z,39.17
2018-02-20T20:58:47.414Z,41.67
2018-02-20T21:01:15.902Z,46.87
2018-02-20T21:03:43.350Z,43.90
2018-02-20T21:06:10.784Z,53.37
2018-02-20T21:08:38.342Z,42.40
2018-02-20T21:11:05.794Z,45.27
2018-02-20T21:13:33.234Z,45.60
2018-02-20T21:16:01.445Z,41.90
2018-02-20T21:18:28.905Z,48.23
2018-02-20T21:20:56.354Z,53.17
2018-02-20T21:23:23.805Z,43.67
2018-02-20T21:25:51.291Z,58.37
2018-02-20T21:28:18.792Z,54.20
2018-02-20T21:30:47.028Z,50.47
2018-02-20T21:33:14.483Z,47.80
2018-02-20T21:35:41.964Z,46.13
2018-02-20T21:38:09.394Z,49.83
2018-02-20T21:40:36.837Z,52.37
2018-02-20T21:43:04.283Z,54.90
2018-02-20T21:45:31.746Z,46.97
2018-02-20T21:47:59.188Z,51.33
2018-02-20T21:50:26.641Z,51.27
2018-02-20T21:52:54.091Z,50.30
2018-02-20T21:55:22.301Z,47.97
2018-02-20T21:57:49.740Z,52.57
2018-02-20T22:00:17.198Z,51.70
2018-02-20T22:02:44.653Z,59.97
2018-02-20T22:05:12.113Z,49.17
2018-02-20T22:07:39.595Z,63.47
2018-02-20T22:10:07.057Z,58.40
2018-02-20T22:12:34.501Z,65.40
2018-02-20T22:15:01.958Z,49.27
2018-02-20T22:17:29.414Z,57.47
2018-02-20T22:19:56.881Z,53.73
2018-02-20T22:22:24.322Z,55.70
2018-02-20T22:24:51.781Z,61.73
2018-02-20T22:27:19.231Z,56.97
2018-02-20T22:29:46.685Z,64.97
2018-02-20T22:32:14.127Z,63.23
2018-02-20T22:34:42.352Z,60.20
2018-02-20T22:37:09.808Z,68.27
2018-02-20T22:39:37.260Z,66.93
2018-02-20T22:42:04.705Z,52.97
2018-02-20T22:44:32.167Z,59.13
2018-02-20T22:46:59.626Z,59.73
2018-02-20T22:49:27.136Z,58.00
2018-02-20T22:51:54.530Z,62.13
2018-02-20T22:54:21.981Z,62.50
2018-02-20T22:56:49.424Z,64.77
2018-02-20T22:59:16.875Z,68.83
2018-02-20T23:01:45.092Z,56.20
2018-02-20T23:04:12.610Z,56.43
2018-02-20T23:06:40.841Z,64.03
2018-02-20T23:09:08.289Z,63.97
2018-02-20T23:11:47.640Z,60.43
2018-02-20T23:14:15.105Z,55.90
2018-02-20T23:16:43.346Z,67.97
2018-02-20T23:19:10.794Z,52.93
2018-02-20T23:21:38.242Z,69.40
2018-02-20T23:24:05.681Z,62.73
2018-02-20T23:26:33.908Z,64.43
2018-02-20T23:29:01.350Z,69.03
2018-02-20T23:31:28.867Z,62.77
2018-02-20T23:33:57.087Z,62.03
2018-02-20T23:36:24.538Z,64.87
2018-02-20T23:38:51.994Z,57.27
2018-02-20T23:41:19.459Z,66.07
2018-02-20T23:43:46.921Z,59.17
2018-02-20T23:46:14.391Z,65.13
2018-02-20T23:48:42.596Z,70.10
2018-02-20T23:51:16.587Z,61.03
2018-02-20T23:53:44.041Z,68.77
2018-02-20T23:56:11.496Z,69.47
2018-02-20T23:58:38.940Z,65.40
